createdAt,value
2019-02-02T00:00:29.558Z,52.13
2019-02-02T00:02:57.934Z,48.70
2019-02-02T00:05:26.313Z,51.10
2019-02-02T00:07:54.701Z,50.00
2019-02-02T00:10:23.069Z,48.83
2019-02-02T00:12:51.477Z,49.27
2019-02-02T00:15:19.854Z,51.30
2019-02-02T00:17:48.170Z,48.90
2019-02-02T00:20:16.564Z,52.47
2019-02-02T00:22:45.343Z,50.97
2019-02-02T00:25:14.034Z,49.50
2019-02-02T00:27:42.420Z,50.23
2019-02-02T00:30:15.795Z,52.17
2019-02-02T00:32:44.193Z,55.27
2019-02-02T00:35:12.563Z,51.50
2019-02-02T00:37:40.959Z,50.93
2019-02-02T00:40:12.637Z,49.17
2019-02-02T00:42:41.033Z,48.87
2019-02-02T00:45:15.364Z,44.80
2019-02-02T00:47:43.755Z,45.43
2019-02-02T00:50:13.685Z,44.93
2019-02-02T00:52:41.946Z,46.17
2019-02-02T00:55:12.960Z,45.00
2019-02-02T00:57:52.677Z,43.57
2019-02-02T01:00:14.557Z,46.20
2019-02-02T01:02:42.965Z,50.77
2019-02-02T01:05:14.661Z,54.03
2019-02-02T01:07:43.026Z,48.77
2019-02-02T01:10:14.676Z,49.47
2019-02-02T01:12:43.368Z,51.67
2019-02-02T01:15:12.918Z,53.23
2019-02-02T01:17:41.653Z,51.33
2019-02-02T01:20:10.914Z,51.33
2019-02-02T01:22:39.288Z,47.57
2019-02-02T01:25:10.105Z,50.90
2019-02-02T01:27:38.543Z,53.27
2019-02-02T01:30:10.415Z,51.90
2019-02-02T01:32:38.809Z,54.50
2019-02-02T01:35:09.631Z,56.43
2019-02-02T01:37:38.002Z,59.83
2019-02-02T01:40:12.457Z,56.10
2019-02-02T01:42:40.783Z,59.63
2019-02-02T01:45:15.683Z,53.20
2019-02-02T01:47:44.077Z,54.20
2019-02-02T01:50:15.680Z,58.20
2019-02-02T01:52:44.024Z,55.53
2019-02-02T01:55:15.478Z,55.50
2019-02-02T01:57:43.857Z,64.90
2019-02-02T02:00:15.271Z,64.57
2019-02-02T02:02:43.669Z,67.00
2019-02-02T02:05:11.967Z,63.03
2019-02-02T02:07:40.812Z,64.00
2019-02-02T02:10:12.198Z,61.40
2019-02-02T02:12:40.536Z,65.40
2019-02-02T02:15:11.550Z,65.50
2019-02-02T02:17:39.929Z,64.77
2019-02-02T02:20:10.562Z,68.33
2019-02-02T02:22:41.104Z,65.33
2019-02-02T02:25:11.517Z,71.00
2019-02-02T02:27:39.930Z,67.27
2019-02-02T02:30:14.419Z,69.80
2019-02-02T02:32:42.795Z,67.00
2019-02-02T02:35:11.188Z,61.90
2019-02-02T02:37:39.825Z,68.87
2019-02-02T02:40:11.514Z,67.10
2019-02-02T02:42:39.893Z,66.13
2019-02-02T02:45:10.551Z,64.03
2019-02-02T02:47:38.922Z,66.27
2019-02-02T02:50:22.493Z,68.97
2019-02-02T02:52:50.931Z,68.80
2019-02-02T02:55:19.255Z,73.57
2019-02-02T02:57:48.095Z,69.13
2019-02-02T03:00:22.424Z,69.97
2019-02-02T03:02:50.831Z,59.93
2019-02-02T03:05:19.277Z,61.17
2019-02-02T03:07:48.895Z,59.50
2019-02-02T03:10:22.065Z,58.97
2019-02-02T03:12:50.433Z,60.53
2019-02-02T03:15:19.495Z,57.93
2019-02-02T03:17:49.190Z,60.50
2019-02-02T03:20:17.566Z,61.13
2019-02-02T03:22:46.041Z,62.40
2019-02-02T03:25:25.286Z,60.80
2019-02-02T03:27:53.687Z,56.97
2019-02-02T03:30:22.142Z,56.07
2019-02-02T03:32:50.594Z,51.60
2019-02-02T03:35:21.010Z,59.53
2019-02-02T03:37:49.335Z,59.00
2019-02-02T03:40:19.381Z,60.10
2019-02-02T03:42:47.871Z,58.97
2019-02-02T03:45:18.482Z,54.53
2019-02-02T03:47:46.872Z,53.40
2019-02-02T03:50:15.330Z,52.30
2019-02-02T03:52:44.047Z,50.07
2019-02-02T03:55:14.435Z,49.40
2019-02-02T03:57:42.822Z,48.67
2019-02-02T04:00:16.446Z,49.63
2019-02-02T04:02:45.209Z,48.50
2019-02-02T04:05:16.206Z,46.07
2019-02-02T04:07:44.518Z,44.60
2019-02-02T04:10:13.932Z,46.20
2019-02-02T04:12:42.244Z,44.73
2019-02-02T04:15:13.088Z,43.33
2019-02-02T04:17:41.821Z,45.17
2019-02-02T04:20:18.582Z,44.30
2019-02-02T04:22:47.062Z,43.33
2019-02-02T04:25:15.979Z,42.93
2019-02-02T04:27:44.350Z,42.00
2019-02-02T04:30:15.547Z,41.60
2019-02-02T04:32:43.918Z,42.07
2019-02-02T04:35:12.336Z,43.10
2019-02-02T04:37:40.674Z,42.53
2019-02-02T04:40:13.962Z,43.53
2019-02-02T04:42:42.349Z,43.53
2019-02-02T04:45:13.341Z,42.40
2019-02-02T04:47:41.723Z,43.27
2019-02-02T04:50:12.345Z,41.40
2019-02-02T04:52:40.735Z,42.37
2019-02-02T04:55:10.853Z,41.37
2019-02-02T04:57:39.230Z,45.40
2019-02-02T05:00:21.830Z,44.07
2019-02-02T05:02:50.425Z,43.40
2019-02-02T05:05:18.988Z,44.73
2019-02-02T05:07:47.704Z,44.13
2019-02-02T05:10:21.695Z,44.20
2019-02-02T05:12:50.143Z,46.90
2019-02-02T05:15:18.527Z,48.80
2019-02-02T05:17:46.871Z,48.03
2019-02-02T05:20:17.082Z,49.10
2019-02-02T05:22:45.591Z,48.03
2019-02-02T05:25:13.970Z,47.73
2019-02-02T05:27:42.374Z,49.53
2019-02-02T05:30:30.617Z,50.47
2019-02-02T05:32:59.292Z,52.07
2019-02-02T05:35:27.700Z,49.53
2019-02-02T05:37:56.068Z,50.63
2019-02-02T05:40:24.423Z,50.43
2019-02-02T05:42:53.163Z,53.07
2019-02-02T05:45:23.265Z,50.60
2019-02-02T05:47:52.019Z,51.77
2019-02-02T05:50:22.327Z,49.03
2019-02-02T05:52:50.977Z,49.87
2019-02-02T05:55:21.190Z,51.17
2019-02-02T05:57:49.566Z,50.43
2019-02-02T06:00:30.297Z,50.03
2019-02-02T06:02:58.683Z,46.67
2019-02-02T06:05:27.039Z,48.00
2019-02-02T06:07:55.367Z,49.77
2019-02-02T06:10:23.729Z,49.10
2019-02-02T06:12:52.151Z,49.83
2019-02-02T06:15:20.521Z,47.73
2019-02-02T06:17:48.902Z,46.03
2019-02-02T06:20:17.365Z,45.57
2019-02-02T06:22:45.658Z,46.23
2019-02-02T06:25:16.786Z,46.40
2019-02-02T06:27:45.233Z,45.60
2019-02-02T06:30:16.902Z,45.20
2019-02-02T06:32:45.327Z,44.20
2019-02-02T06:35:14.327Z,44.80
2019-02-02T06:37:42.687Z,43.97
2019-02-02T06:40:15.177Z,44.83
2019-02-02T06:42:44.463Z,44.53
2019-02-02T06:45:24.232Z,44.83
2019-02-02T06:47:52.893Z,43.07
2019-02-02T06:50:21.312Z,42.10
2019-02-02T06:52:49.619Z,42.27
2019-02-02T06:55:17.992Z,44.00
2019-02-02T06:57:46.410Z,38.03
2019-02-02T07:00:17.590Z,38.23
2019-02-02T07:02:45.904Z,37.37
2019-02-02T07:05:14.575Z,37.57
2019-02-02T07:07:42.957Z,34.70
2019-02-02T07:10:20.569Z,33.57
2019-02-02T07:12:48.979Z,30.90
2019-02-02T07:15:19.488Z,30.00
2019-02-02T07:17:47.884Z,29.17
2019-02-02T07:20:16.323Z,31.37
2019-02-02T07:22:44.691Z,29.10
2019-02-02T07:25:13.127Z,29.57
2019-02-02T07:27:41.601Z,29.20
2019-02-02T07:30:28.393Z,31.37
2019-02-02T07:32:49.215Z,32.87
2019-02-02T07:35:17.660Z,36.43
2019-02-02T07:37:46.017Z,35.07
2019-02-02T07:40:19.347Z,34.50
2019-02-02T07:42:47.724Z,34.00
2019-02-02T07:45:18.461Z,30.87
2019-02-02T07:47:46.831Z,31.23
2019-02-02T07:50:16.566Z,28.33
2019-02-02T07:52:44.940Z,29.73
2019-02-02T07:55:15.957Z,28.27
2019-02-02T07:57:44.330Z,26.57
2019-02-02T08:00:40.342Z,26.47
2019-02-02T08:03:00.163Z,24.63
2019-02-02T08:05:30.114Z,22.07
2019-02-02T08:07:58.476Z,22.50
2019-02-02T08:10:26.787Z,22.10
2019-02-02T08:12:55.121Z,21.53
2019-02-02T08:15:33.506Z,20.87
2019-02-02T08:18:01.951Z,20.67
2019-02-02T08:20:30.631Z,18.43
2019-02-02T08:22:58.990Z,20.67
2019-02-02T08:25:27.348Z,19.70
2019-02-02T08:27:55.796Z,21.57
2019-02-02T08:30:26.449Z,21.80
2019-02-02T08:32:54.829Z,22.63
2019-02-02T08:35:23.205Z,22.57
2019-02-02T08:37:51.623Z,20.60
2019-02-02T08:40:20.452Z,19.80
2019-02-02T08:42:48.834Z,19.97
2019-02-02T08:45:17.337Z,19.37
2019-02-02T08:47:45.693Z,17.33
2019-02-02T08:50:17.347Z,18.63
2019-02-02T08:52:46.063Z,19.33
2019-02-02T08:55:14.430Z,17.60
2019-02-02T08:57:42.805Z,18.00
2019-02-02T09:00:16.460Z,17.87
2019-02-02T09:02:44.911Z,16.77
2019-02-02T09:05:15.258Z,16.40
2019-02-02T09:07:43.641Z,16.63
2019-02-02T09:10:17.592Z,16.77
2019-02-02T09:12:46.184Z,14.90
2019-02-02T09:15:16.566Z,17.63
2019-02-02T09:17:44.931Z,15.83
2019-02-02T09:20:15.172Z,17.43
2019-02-02T09:22:43.861Z,17.40
2019-02-02T09:25:14.977Z,17.40
2019-02-02T09:27:43.342Z,17.40
2019-02-02T09:30:23.449Z,15.30
2019-02-02T09:32:51.843Z,13.27
2019-02-02T09:35:20.148Z,12.37
2019-02-02T09:37:48.713Z,13.47
2019-02-02T09:40:18.543Z,11.97
2019-02-02T09:42:46.940Z,16.80
2019-02-02T09:45:20.174Z,16.03
2019-02-02T09:47:48.542Z,15.20
2019-02-02T09:50:19.425Z,13.07
2019-02-02T09:52:47.816Z,12.67
2019-02-02T09:55:25.050Z,12.37
2019-02-02T09:57:56.697Z,10.60
2019-02-02T10:00:27.663Z,10.73
2019-02-02T10:02:56.399Z,10.63
2019-02-02T10:05:25.046Z,10.87
2019-02-02T10:07:53.407Z,11.13
2019-02-02T10:10:27.153Z,12.83
2019-02-02T10:12:55.526Z,13.00
2019-02-02T10:15:23.930Z,12.53
2019-02-02T10:17:52.261Z,14.57
2019-02-02T10:20:25.418Z,15.33
2019-02-02T10:22:53.961Z,14.33
2019-02-02T10:25:25.241Z,14.30
2019-02-02T10:27:53.666Z,12.10
2019-02-02T10:30:24.298Z,11.17
2019-02-02T10:32:52.671Z,10.80
2019-02-02T10:35:40.482Z,10.47
2019-02-02T10:38:08.851Z,11.57
2019-02-02T10:40:37.237Z,10.60
2019-02-02T10:43:05.565Z,10.97
2019-02-02T10:45:33.952Z,10.13
2019-02-02T10:48:02.702Z,9.77
2019-02-02T10:50:31.062Z,9.27
2019-02-02T10:52:59.843Z,9.37
2019-02-02T10:55:28.141Z,8.63
2019-02-02T10:57:56.553Z,9.07
2019-02-02T11:00:27.311Z,9.00
2019-02-02T11:02:55.613Z,9.53
2019-02-02T11:05:24.028Z,9.00
2019-02-02T11:07:54.578Z,9.10
2019-02-02T11:10:27.595Z,8.47
2019-02-02T11:12:56.411Z,9.53
2019-02-02T11:15:24.810Z,9.37
2019-02-02T11:17:53.265Z,9.33
2019-02-02T11:20:26.992Z,8.80
2019-02-02T11:22:55.478Z,8.07
2019-02-02T11:25:23.946Z,8.70
2019-02-02T11:27:52.481Z,8.77
2019-02-02T11:30:21.970Z,8.63
2019-02-02T11:32:50.242Z,8.60
2019-02-02T11:35:20.138Z,8.90
2019-02-02T11:37:48.523Z,8.60
2019-02-02T11:40:19.430Z,8.90
2019-02-02T11:42:47.755Z,9.17
2019-02-02T11:45:16.406Z,9.10
2019-02-02T11:47:44.793Z,8.67
2019-02-02T11:50:20.922Z,9.47
2019-02-02T11:52:49.321Z,12.30
2019-02-02T11:55:19.533Z,11.67
2019-02-02T11:57:50.061Z,10.47
2019-02-02T12:00:29.344Z,9.57
2019-02-02T12:02:57.671Z,10.87
2019-02-02T12:05:26.066Z,10.07
2019-02-02T12:07:54.434Z,9.07
2019-02-02T12:10:27.522Z,9.70
2019-02-02T12:12:55.804Z,9.30
2019-02-02T12:15:24.119Z,9.87
2019-02-02T12:17:52.573Z,10.07
2019-02-02T12:20:22.393Z,9.57
2019-02-02T12:22:51.000Z,10.13
2019-02-02T12:25:19.847Z,11.30
2019-02-02T12:27:48.301Z,10.47
2019-02-02T12:30:28.148Z,10.57
2019-02-02T12:32:56.454Z,10.30
2019-02-02T12:35:26.604Z,10.10
2019-02-02T12:37:55.046Z,8.77
2019-02-02T12:40:25.060Z,9.33
2019-02-02T12:42:53.445Z,9.27
2019-02-02T12:45:46.273Z,9.87
2019-02-02T12:48:14.660Z,8.80
2019-02-02T12:50:43.014Z,9.27
2019-02-02T12:53:11.524Z,7.70
2019-02-02T12:55:39.897Z,8.50
2019-02-02T12:58:08.264Z,8.13
2019-02-02T13:00:36.578Z,8.50
2019-02-02T13:03:05.180Z,8.73
2019-02-02T13:05:33.581Z,8.77
2019-02-02T13:08:05.011Z,8.47
2019-02-02T13:10:32.533Z,7.53
2019-02-02T13:13:00.875Z,8.10
2019-02-02T13:15:29.203Z,8.40
2019-02-02T13:17:57.514Z,9.33
2019-02-02T13:20:26.295Z,8.87
2019-02-02T13:22:54.601Z,7.93
2019-02-02T13:25:24.143Z,8.33
2019-02-02T13:27:52.490Z,8.70
2019-02-02T13:30:29.800Z,8.00
2019-02-02T13:32:58.129Z,8.53
2019-02-02T13:35:27.997Z,7.60
2019-02-02T13:37:56.351Z,7.53
2019-02-02T13:40:24.735Z,7.97
2019-02-02T13:42:53.127Z,7.57
2019-02-02T13:45:22.853Z,8.13
2019-02-02T13:47:51.259Z,7.00
2019-02-02T13:50:19.835Z,7.00
2019-02-02T13:52:49.799Z,6.50
2019-02-02T13:55:18.180Z,6.23
2019-02-02T13:57:46.553Z,6.33
2019-02-02T14:00:23.921Z,7.30
2019-02-02T14:03:02.420Z,6.07
2019-02-02T14:05:22.303Z,7.07
2019-02-02T14:07:50.615Z,7.47
2019-02-02T14:10:21.215Z,7.23
2019-02-02T14:12:49.679Z,7.03
2019-02-02T14:15:18.059Z,8.23
2019-02-02T14:17:46.416Z,8.57
2019-02-02T14:20:15.539Z,8.93
2019-02-02T14:22:43.913Z,9.17
2019-02-02T14:25:13.974Z,9.10
2019-02-02T14:27:42.340Z,10.63
2019-02-02T14:30:19.291Z,10.43
2019-02-02T14:32:47.597Z,10.93
2019-02-02T14:35:18.540Z,9.80
2019-02-02T14:37:46.928Z,10.93
2019-02-02T14:40:17.552Z,11.17
2019-02-02T14:42:45.962Z,12.13
2019-02-02T14:45:17.035Z,12.40
2019-02-02T14:47:45.397Z,12.07
2019-02-02T14:50:18.762Z,12.43
2019-02-02T14:52:45.770Z,12.40
2019-02-02T14:55:16.573Z,11.17
2019-02-02T14:57:44.934Z,12.03
2019-02-02T15:00:18.711Z,12.73
2019-02-02T15:03:06.630Z,9.60
2019-02-02T15:05:42.485Z,10.80
2019-02-02T15:08:05.008Z,9.33
2019-02-02T15:10:33.440Z,9.47
2019-02-02T15:13:01.811Z,8.30
2019-02-02T15:15:30.153Z,9.33
2019-02-02T15:17:58.528Z,8.80
2019-02-02T15:20:35.350Z,8.80
2019-02-02T15:23:03.732Z,9.20
2019-02-02T15:25:32.453Z,9.67
2019-02-02T15:28:01.118Z,9.13
2019-02-02T15:30:34.892Z,10.10
2019-02-02T15:33:03.265Z,9.40
2019-02-02T15:35:31.559Z,10.23
2019-02-02T15:37:59.882Z,9.30
2019-02-02T15:40:31.285Z,9.17
2019-02-02T15:42:58.340Z,9.70
2019-02-02T15:45:32.674Z,8.80
2019-02-02T15:48:01.128Z,9.77
2019-02-02T15:50:29.494Z,10.63
2019-02-02T15:52:57.867Z,11.00
2019-02-02T15:55:26.216Z,10.83
2019-02-02T15:57:54.580Z,11.33
2019-02-02T16:00:36.568Z,12.60
2019-02-02T16:03:05.300Z,12.23
2019-02-02T16:05:34.995Z,14.10
2019-02-02T16:08:06.687Z,12.30
2019-02-02T16:10:35.065Z,13.00
2019-02-02T16:13:03.442Z,12.80
2019-02-02T16:15:34.139Z,13.23
2019-02-02T16:18:01.822Z,13.73
2019-02-02T16:20:35.788Z,12.73
2019-02-02T16:23:04.554Z,12.43
2019-02-02T16:25:32.920Z,12.70
2019-02-02T16:28:01.236Z,11.97
2019-02-02T16:30:30.255Z,12.60
2019-02-02T16:32:58.610Z,13.00
2019-02-02T16:35:27.067Z,11.63
2019-02-02T16:37:55.521Z,11.60
2019-02-02T16:40:26.495Z,12.03
2019-02-02T16:42:54.817Z,10.87
2019-02-02T16:45:31.594Z,11.47
2019-02-02T16:47:59.955Z,11.20
2019-02-02T16:50:28.474Z,10.73
2019-02-02T16:52:56.862Z,11.30
2019-02-02T16:55:25.241Z,11.43
2019-02-02T16:57:53.632Z,10.93
2019-02-02T17:00:27.541Z,11.50
2019-02-02T17:02:56.007Z,11.50
2019-02-02T17:05:24.763Z,11.70
2019-02-02T17:07:53.460Z,13.13
2019-02-02T17:10:24.547Z,13.47
2019-02-02T17:12:52.981Z,12.53
2019-02-02T17:15:21.766Z,11.97
2019-02-02T17:17:50.128Z,13.80
2019-02-02T17:20:21.550Z,12.80
2019-02-02T17:22:49.908Z,12.70
2019-02-02T17:25:22.361Z,13.50
2019-02-02T17:27:49.928Z,13.73
2019-02-02T17:30:20.551Z,13.63
2019-02-02T17:32:49.884Z,14.20
2019-02-02T17:35:18.242Z,14.47
2019-02-02T17:37:46.625Z,14.37
2019-02-02T17:40:23.112Z,14.80
2019-02-02T17:42:51.468Z,15.37
2019-02-02T17:45:21.401Z,16.00
2019-02-02T17:47:49.840Z,16.90
2019-02-02T17:50:19.980Z,17.40
2019-02-02T17:52:48.672Z,15.97
2019-02-02T17:55:17.030Z,18.20
2019-02-02T17:57:45.560Z,17.70
2019-02-02T18:00:24.001Z,17.73
2019-02-02T18:02:52.341Z,20.73
2019-02-02T18:05:20.749Z,29.27
2019-02-02T18:07:49.108Z,28.90
2019-02-02T18:10:18.070Z,24.37
2019-02-02T18:12:46.441Z,30.23
2019-02-02T18:15:15.914Z,22.83
2019-02-02T18:17:44.303Z,23.50
2019-02-02T18:20:16.930Z,26.53
2019-02-02T18:22:45.307Z,20.90
2019-02-02T18:25:18.430Z,54.27
2019-02-02T18:27:46.854Z,21.83
2019-02-02T18:30:23.784Z,21.90
2019-02-02T18:32:52.232Z,23.63
2019-02-02T18:35:20.555Z,21.70
2019-02-02T18:37:48.886Z,24.37
2019-02-02T18:40:19.134Z,23.97
2019-02-02T18:42:47.508Z,25.37
2019-02-02T18:45:24.008Z,22.80
2019-02-02T18:47:52.382Z,23.00
2019-02-02T18:50:20.759Z,21.27
2019-02-02T18:52:50.989Z,20.47
2019-02-02T18:55:27.862Z,20.93
2019-02-02T18:57:56.311Z,24.77
2019-02-02T19:00:24.675Z,21.67
2019-02-02T19:02:53.046Z,20.63
2019-02-02T19:05:21.617Z,25.23
2019-02-02T19:07:49.916Z,22.80
2019-02-02T19:10:21.871Z,21.77
2019-02-02T19:12:50.317Z,21.63
2019-02-02T19:15:18.668Z,28.60
2019-02-02T19:17:47.080Z,20.23
2019-02-02T19:20:17.553Z,19.33
2019-02-02T19:22:46.078Z,20.43
2019-02-02T19:25:14.439Z,20.90
2019-02-02T19:27:42.859Z,33.97
2019-02-02T19:30:23.620Z,43.83
2019-02-02T19:32:51.984Z,22.47
2019-02-02T19:35:20.840Z,20.93
2019-02-02T19:37:49.670Z,21.27
2019-02-02T19:40:18.427Z,20.93
2019-02-02T19:42:46.862Z,20.00
2019-02-02T19:45:26.503Z,20.07
2019-02-02T19:47:54.869Z,19.07
2019-02-02T19:50:28.732Z,21.10
2019-02-02T19:52:57.113Z,18.67
2019-02-02T19:55:25.473Z,19.87
2019-02-02T19:57:53.899Z,19.10
2019-02-02T20:00:27.740Z,18.20
2019-02-02T20:02:56.053Z,21.83
2019-02-02T20:05:28.553Z,22.80
2019-02-02T20:07:55.128Z,22.27
2019-02-02T20:10:23.480Z,33.73
2019-02-02T20:12:51.814Z,36.90
2019-02-02T20:15:22.337Z,20.50
2019-02-02T20:17:50.716Z,22.60
2019-02-02T20:20:21.506Z,19.87
2019-02-02T20:22:50.246Z,23.20
2019-02-02T20:25:18.568Z,42.23
2019-02-02T20:27:46.899Z,28.03
2019-02-02T20:30:20.794Z,72.43
2019-02-02T20:32:49.122Z,20.60
2019-02-02T20:35:17.532Z,20.17
2019-02-02T20:37:46.272Z,18.03
2019-02-02T20:40:26.273Z,17.80
2019-02-02T20:42:55.007Z,17.70
2019-02-02T20:45:34.754Z,17.47
2019-02-02T20:48:03.127Z,19.83
2019-02-02T20:50:31.586Z,26.93
2019-02-02T20:52:59.965Z,90.43
2019-02-02T20:55:31.325Z,47.20
2019-02-02T20:57:59.790Z,21.57
2019-02-02T21:00:29.742Z,104.77
2019-02-02T21:02:58.130Z,22.67
2019-02-02T21:05:26.528Z,25.67
2019-02-02T21:07:54.916Z,23.37
2019-02-02T21:10:24.828Z,23.63
2019-02-02T21:12:53.224Z,27.70
2019-02-02T21:15:21.913Z,25.43
2019-02-02T21:17:50.313Z,27.13
2019-02-02T21:20:24.175Z,24.90
2019-02-02T21:22:53.113Z,25.37
2019-02-02T21:25:21.502Z,23.47
2019-02-02T21:27:49.851Z,26.37
2019-02-02T21:30:23.159Z,22.13
2019-02-02T21:32:51.526Z,17.00
2019-02-02T21:35:20.391Z,17.20
2019-02-02T21:37:48.787Z,16.03
2019-02-02T21:40:22.698Z,16.13
2019-02-02T21:42:51.011Z,15.80
2019-02-02T21:45:19.376Z,16.53
2019-02-02T21:47:47.791Z,17.40
2019-02-02T21:50:20.824Z,15.50
2019-02-02T21:52:49.318Z,15.67
2019-02-02T21:55:23.375Z,15.40
2019-02-02T21:57:51.810Z,16.10
2019-02-02T22:00:22.900Z,15.73
2019-02-02T22:02:51.272Z,15.63
2019-02-02T22:05:19.661Z,14.70
2019-02-02T22:07:48.412Z,17.07
2019-02-02T22:10:16.956Z,16.87
2019-02-02T22:12:45.322Z,16.03
2019-02-02T22:15:17.561Z,14.90
2019-02-02T22:17:46.150Z,15.37
2019-02-02T22:20:15.983Z,16.13
2019-02-02T22:22:44.361Z,16.93
2019-02-02T22:25:21.284Z,17.60
2019-02-02T22:27:49.727Z,19.37
2019-02-02T22:30:23.831Z,18.10
2019-02-02T22:32:52.246Z,18.40
2019-02-02T22:35:20.622Z,22.87
2019-02-02T22:37:49.032Z,21.07
2019-02-02T22:40:20.037Z,23.23
2019-02-02T22:42:48.502Z,22.80
2019-02-02T22:45:18.191Z,20.87
2019-02-02T22:47:47.557Z,20.77
2019-02-02T22:50:18.305Z,21.87
2019-02-02T22:52:47.368Z,31.10
2019-02-02T22:55:20.215Z,21.50
2019-02-02T22:57:48.594Z,26.93
2019-02-02T23:00:30.972Z,25.73
2019-02-02T23:02:59.978Z,21.70
2019-02-02T23:05:31.628Z,27.40
2019-02-02T23:08:03.849Z,24.00
2019-02-02T23:10:47.099Z,26.77
2019-02-02T23:13:27.735Z,26.40
2019-02-02T23:16:25.647Z,28.40
2019-02-02T23:18:54.690Z,28.93
2019-02-02T23:21:23.492Z,19.90
2019-02-02T23:23:52.370Z,20.50
2019-02-02T23:26:21.140Z,27.23
2019-02-02T23:28:49.499Z,20.83
2019-02-02T23:31:17.866Z,26.47
2019-02-02T23:33:46.256Z,22.50
2019-02-02T23:36:14.648Z,27.60
2019-02-02T23:38:43.025Z,21.63
2019-02-02T23:41:11.355Z,24.07
2019-02-02T23:43:39.732Z,29.80
2019-02-02T23:46:08.124Z,27.87
2019-02-02T23:48:36.816Z,34.53
2019-02-02T23:51:05.426Z,25.10
2019-02-02T23:53:33.781Z,25.80
2019-02-02T23:56:02.178Z,24.87
2019-02-02T23:58:30.933Z,26.00
